createdAt,value
2019-03-10T00:00:27.085Z,3.4
2019-03-10T00:05:29.425Z,3.4
2019-03-10T00:10:31.920Z,3.4
2019-03-10T00:15:34.443Z,3.4
2019-03-10T00:20:36.821Z,3.5
2019-03-10T00:25:39.282Z,3.6
2019-03-10T00:30:41.758Z,3.8
2019-03-10T00:35:44.219Z,4
2019-03-10T00:40:46.770Z,4.1
2019-03-10T00:45:49.127Z,4.3
2019-03-10T00:50:51.570Z,4.4
2019-03-10T00:55:54.155Z,4.4
2019-03-10T01:00:56.519Z,4.5
2019-03-10T01:05:59.179Z,4.6
2019-03-10T01:11:01.481Z,4.7
2019-03-10T01:16:03.904Z,4.8
2019-03-10T01:21:06.330Z,4.8
2019-03-10T01:26:08.880Z,4.8
2019-03-10T01:31:11.638Z,4.9
2019-03-10T01:46:18.643Z,5
2019-03-10T01:51:21.138Z,5
2019-03-10T01:56:23.618Z,5
2019-03-10T02:01:26.008Z,5.1
2019-03-10T02:06:28.436Z,5.1
2019-03-10T02:11:30.938Z,5
2019-03-10T02:16:33.514Z,5
2019-03-10T02:21:35.817Z,5
2019-03-10T02:26:38.370Z,5
2019-03-10T02:31:41.082Z,5.1
2019-03-10T02:36:48.252Z,5.2
2019-03-10T02:41:45.642Z,5.2
2019-03-10T02:46:48.163Z,5.3
2019-03-10T02:51:50.599Z,5.3
2019-03-10T02:56:53.105Z,5.4
2019-03-10T03:06:57.932Z,5.4
2019-03-10T03:12:05.381Z,5.4
2019-03-10T03:17:07.831Z,5.4
2019-03-10T03:22:05.306Z,5.4
2019-03-10T03:27:07.826Z,5.3
2019-03-10T03:32:10.224Z,5.4
2019-03-10T03:37:12.712Z,5.4
2019-03-10T03:42:15.147Z,5.4
2019-03-10T03:47:17.687Z,5.3
2019-03-10T03:52:20.075Z,5.3
2019-03-10T03:57:27.501Z,5.2
2019-03-10T04:02:24.977Z,5.2
2019-03-10T04:07:27.419Z,5.2
2019-03-10T04:12:29.903Z,5.2
2019-03-10T04:17:32.426Z,5.2
2019-03-10T04:22:34.819Z,5.2
2019-03-10T04:27:37.321Z,5.2
2019-03-10T04:32:39.687Z,5.2
2019-03-10T04:37:42.164Z,5.2
2019-03-10T04:42:44.597Z,5.1
2019-03-10T04:47:47.104Z,5.2
2019-03-10T04:52:49.554Z,5.3
2019-03-10T04:57:52.056Z,5.3
2019-03-10T05:02:54.455Z,5.3
2019-03-10T05:07:56.928Z,5.4
2019-03-10T05:18:01.836Z,5.4
2019-03-10T05:23:04.287Z,5.5
2019-03-10T05:28:06.842Z,5.5
2019-03-10T05:33:09.201Z,5.6
2019-03-10T05:38:11.810Z,5.6
2019-03-10T05:43:14.101Z,5.6
2019-03-10T05:48:16.616Z,5.6
2019-03-10T05:53:19.083Z,5.5
2019-03-10T05:58:21.479Z,5.5
2019-03-10T06:03:23.927Z,5.4
2019-03-10T06:08:26.377Z,5.4
2019-03-10T06:13:28.843Z,5.3
2019-03-10T06:18:31.338Z,5.4
2019-03-10T06:23:33.830Z,5.4
2019-03-10T06:28:36.310Z,5.4
2019-03-10T06:33:38.659Z,5.4
2019-03-10T06:38:41.164Z,5.5
2019-03-10T06:43:43.580Z,5.6
2019-03-10T06:48:46.036Z,5.6
2019-03-10T06:53:48.496Z,5.6
2019-03-10T06:58:51.021Z,5.7
2019-03-10T07:03:53.454Z,5.7
2019-03-10T07:08:55.905Z,5.8
2019-03-10T07:13:58.322Z,5.9
2019-03-10T07:19:00.813Z,6
2019-03-10T07:24:03.273Z,6
2019-03-10T07:29:05.734Z,6.1
2019-03-10T07:34:08.186Z,6.2
2019-03-10T07:39:10.717Z,6.2
2019-03-10T07:44:13.121Z,6.3
2019-03-10T07:49:17.955Z,6.3
2019-03-10T07:54:17.989Z,6.2
2019-03-10T07:59:20.517Z,5.8
2019-03-10T08:04:22.903Z,5.5
2019-03-10T08:09:25.357Z,5.3
2019-03-10T08:14:27.819Z,5.1
2019-03-10T08:19:30.270Z,5
2019-03-10T08:24:32.727Z,5
2019-03-10T08:29:35.202Z,5
2019-03-10T08:34:37.643Z,5
2019-03-10T08:39:40.090Z,5
2019-03-10T08:44:42.567Z,5.1
2019-03-10T08:49:45.655Z,5
2019-03-10T08:54:47.506Z,5.1
2019-03-10T08:59:49.937Z,5
2019-03-10T09:04:52.393Z,5.1
2019-03-10T09:09:54.854Z,5.1
2019-03-10T09:14:57.340Z,5.2
2019-03-10T09:19:59.773Z,5.3
2019-03-10T09:25:02.231Z,5.3
2019-03-10T09:30:04.773Z,5.4
2019-03-10T09:35:07.150Z,5.4
2019-03-10T09:40:09.646Z,5.3
2019-03-10T09:45:12.045Z,5.4
2019-03-10T09:50:14.498Z,5.5
2019-03-10T09:55:17.001Z,5.6
2019-03-10T10:00:19.519Z,5.8
2019-03-10T10:05:21.940Z,5.9
2019-03-10T10:10:24.391Z,6
2019-03-10T10:15:26.787Z,6.1
2019-03-10T10:20:29.339Z,6.1
2019-03-10T10:25:31.748Z,6
2019-03-10T10:30:34.260Z,5.9
2019-03-10T10:35:36.615Z,6
2019-03-10T10:40:39.130Z,6.2
2019-03-10T10:45:41.534Z,6.4
2019-03-10T10:50:44.010Z,6.7
2019-03-10T10:55:46.527Z,7.1
2019-03-10T11:00:48.979Z,7.7
2019-03-10T11:05:51.387Z,8.6
2019-03-10T11:10:53.873Z,9.1
2019-03-10T11:15:56.312Z,9.5
2019-03-10T11:20:58.747Z,9.8
2019-03-10T11:26:01.291Z,9.8
2019-03-10T11:31:03.731Z,9.7
2019-03-10T11:36:06.105Z,9.3
2019-03-10T11:41:08.573Z,8.9
2019-03-10T11:46:11.015Z,8.7
2019-03-10T11:51:13.490Z,8.8
2019-03-10T11:56:15.930Z,9.1
2019-03-10T12:01:18.406Z,10
2019-03-10T12:06:20.864Z,11.7
2019-03-10T12:11:23.383Z,12.4
2019-03-10T12:16:25.825Z,12.4
2019-03-10T12:21:28.230Z,12.4
2019-03-10T12:26:30.769Z,12.2
2019-03-10T12:31:33.136Z,11.8
2019-03-10T12:36:35.785Z,11.1
2019-03-10T12:41:38.059Z,10.9
2019-03-10T12:46:40.505Z,11.4
2019-03-10T12:51:42.973Z,11.7
2019-03-10T12:56:45.423Z,11.7
2019-03-10T13:01:47.945Z,11.4
2019-03-10T13:06:50.351Z,11.3
2019-03-10T13:11:52.865Z,11.2
2019-03-10T13:16:55.288Z,11.2
2019-03-10T13:21:57.833Z,11.9
2019-03-10T13:27:00.179Z,13.3
2019-03-10T13:32:02.738Z,13.6
2019-03-10T13:37:05.086Z,13.6
2019-03-10T13:42:07.556Z,13.4
2019-03-10T13:47:10.013Z,13
2019-03-10T13:52:12.455Z,12.6
2019-03-10T13:57:14.928Z,12.1
2019-03-10T14:02:17.393Z,11.4
2019-03-10T14:07:19.819Z,11
2019-03-10T14:12:22.329Z,10.5
2019-03-10T14:17:24.733Z,10.2
2019-03-10T14:22:27.270Z,9.9
2019-03-10T14:27:29.679Z,9.7
2019-03-10T14:32:32.122Z,9.7
2019-03-10T14:37:34.566Z,9.6
2019-03-10T14:42:37.046Z,9.7
2019-03-10T14:47:39.497Z,10
2019-03-10T14:52:41.945Z,10
2019-03-10T14:57:44.413Z,10.1
2019-03-10T15:02:47.587Z,10.3
2019-03-10T15:07:49.324Z,10.4
2019-03-10T15:12:51.819Z,10.4
2019-03-10T15:17:54.237Z,10.3
2019-03-10T15:27:59.136Z,10.6
2019-03-10T15:33:01.622Z,10.6
2019-03-10T15:38:04.065Z,10.5
2019-03-10T15:43:06.532Z,10.3
2019-03-10T15:48:08.959Z,10.3
2019-03-10T15:53:11.420Z,10.2
2019-03-10T15:58:13.883Z,10
2019-03-10T16:03:16.488Z,9.8
2019-03-10T16:08:18.824Z,9.7
2019-03-10T16:13:21.324Z,9.6
2019-03-10T16:18:23.759Z,9.6
2019-03-10T16:23:26.177Z,9.5
2019-03-10T16:28:28.642Z,9.5
2019-03-10T16:33:31.162Z,9.4
2019-03-10T16:38:33.579Z,9.2
2019-03-10T16:43:36.062Z,9
2019-03-10T16:48:38.463Z,8.9
2019-03-10T16:53:41.894Z,8.8
2019-03-10T16:58:43.377Z,8.6
2019-03-10T17:03:45.854Z,8.3
2019-03-10T17:08:48.349Z,8.1
2019-03-10T17:13:50.805Z,8
2019-03-10T17:18:53.199Z,7.9
2019-03-10T17:23:55.664Z,7.7
2019-03-10T17:28:58.174Z,7.5
2019-03-10T17:34:00.650Z,7.3
2019-03-10T17:39:03.049Z,7.2
2019-03-10T17:44:05.834Z,7.1
2019-03-10T17:49:07.951Z,7.3
2019-03-10T17:54:10.407Z,7.5
2019-03-10T17:59:12.928Z,7.6
2019-03-10T18:04:15.322Z,7.7
2019-03-10T18:09:17.779Z,7.8
2019-03-10T18:14:20.533Z,7.9
2019-03-10T18:19:22.706Z,8
2019-03-10T18:24:25.138Z,7.9
2019-03-10T18:29:27.615Z,7.8
2019-03-10T18:34:30.057Z,7.8
2019-03-10T18:39:32.533Z,7.8
2019-03-10T18:44:35.277Z,7.7
2019-03-10T18:49:37.597Z,7.7
2019-03-10T18:54:39.897Z,7.5
2019-03-10T18:59:42.337Z,7.3
2019-03-10T19:04:44.935Z,7.2
2019-03-10T19:09:47.403Z,7.1
2019-03-10T19:14:50.125Z,7.1
2019-03-10T19:19:52.168Z,7
2019-03-10T19:24:54.620Z,6.9
2019-03-10T19:29:57.118Z,6.8
2019-03-10T19:34:59.577Z,6.8
2019-03-10T19:40:02.047Z,6.7
2019-03-10T19:45:04.783Z,6.7
2019-03-10T19:50:07.026Z,6.6
2019-03-10T19:55:09.412Z,6.6
2019-03-10T20:00:11.954Z,6.6
2019-03-10T20:05:14.290Z,6.6
2019-03-10T20:10:16.769Z,6.6
2019-03-10T20:15:19.304Z,6.7
2019-03-10T20:20:21.661Z,6.7
2019-03-10T20:25:24.155Z,6.7
2019-03-10T20:30:26.697Z,6.6
2019-03-10T20:35:29.061Z,6.4
2019-03-10T20:40:31.543Z,6.3
2019-03-10T20:45:34.279Z,6.3
2019-03-10T20:50:36.419Z,6.2
2019-03-10T20:55:38.885Z,6
2019-03-10T21:00:41.336Z,5.7
2019-03-10T21:05:43.809Z,5.3
2019-03-10T21:10:46.371Z,4.9
2019-03-10T21:15:49.091Z,4.6
2019-03-10T21:20:51.158Z,4.3
2019-03-10T21:25:53.636Z,4.2
2019-03-10T21:30:56.072Z,4
2019-03-10T21:35:58.551Z,3.9
2019-03-10T21:41:00.996Z,3.8
2019-03-10T21:46:03.541Z,3.8
2019-03-10T21:51:05.922Z,3.7
2019-03-10T21:56:08.406Z,3.6
2019-03-10T22:01:10.888Z,3.4
2019-03-10T22:06:13.299Z,3.4
2019-03-10T22:11:15.756Z,3.4
2019-03-10T22:16:18.307Z,3.3
2019-03-10T22:21:20.723Z,3.2
2019-03-10T22:26:23.139Z,3.2
2019-03-10T22:31:25.649Z,3.2
2019-03-10T22:36:28.092Z,3.2
2019-03-10T22:41:30.623Z,3.1
2019-03-10T22:46:33.007Z,3.1
2019-03-10T22:51:35.470Z,3.1
2019-03-10T22:56:37.941Z,3
2019-03-10T23:01:40.476Z,3
2019-03-10T23:06:42.842Z,3
2019-03-10T23:11:45.300Z,2.9
2019-03-10T23:16:47.939Z,2.9
2019-03-10T23:21:50.271Z,2.9
2019-03-10T23:26:52.695Z,2.9
2019-03-10T23:31:55.247Z,2.8
2019-03-10T23:37:02.633Z,2.6
2019-03-10T23:42:00.098Z,2.3
2019-03-10T23:47:02.669Z,2.1
2019-03-10T23:52:05.006Z,1.9
2019-03-10T23:57:07.483Z,1.8
